Time;durP1;ratioP1;P1;durP2;ratioP2;P2;SDS_P1;SDS_P2;PMS_P1;PMS_P2;Temp;Humidity;BMP_temperature;BMP_pressure;BME280_temperature;BME280_humidity;BME280_pressure;Samples;Min_cycle;Max_cycle;Signal;HPM_P1;HPM_P2
2021/01/09 00:01:54;;;;;;;18.15;12.60;;;;;;;8.79;43.88;100451.77;1815812;79;21136;-77
2021/01/09 00:04:21;;;;;;;19.85;12.37;;;;;;;8.78;43.86;100458.11;1815675;79;21160;-76
2021/01/09 00:06:50;;;;;;;17.20;12.28;;;;;;;8.77;43.89;100459.94;1812504;79;21164;-76
2021/01/09 00:09:18;;;;;;;15.88;11.03;;;;;;;8.77;43.97;100457.27;1798698;78;21571;-76
2021/01/09 00:11:46;;;;;;;17.90;11.33;;;;;;;8.77;43.93;100450.59;1783826;80;21358;-77
2021/01/09 00:14:15;;;;;;;18.00;11.15;;;;;;;8.74;43.93;100446.87;1783680;80;21159;-77
2021/01/09 00:16:48;;;;;;;15.95;11.20;;;;;;;8.74;43.82;100444.20;1783990;80;21196;-77
2021/01/09 00:19:17;;;;;;;16.10;10.93;;;;;;;8.74;43.84;100443.36;1783543;80;21172;-76
2021/01/09 00:21:44;;;;;;;15.63;10.60;;;;;;;8.73;43.81;100449.20;1784163;80;21112;-77
2021/01/09 00:24:12;;;;;;;16.90;10.30;;;;;;;8.74;43.77;100458.05;1784022;80;21791;-77
2021/01/09 00:26:40;;;;;;;15.83;10.35;;;;;;;8.72;43.71;100447.52;1784058;80;21590;-77
2021/01/09 00:29:07;;;;;;;15.58;10.50;;;;;;;8.70;43.69;100440.64;1784088;80;21156;-76
2021/01/09 00:31:35;;;;;;;15.08;10.23;;;;;;;8.67;43.62;100432.91;1784212;80;21060;-77
2021/01/09 00:34:03;;;;;;;14.65;10.03;;;;;;;8.63;43.63;100431.89;1784102;80;21529;-76
2021/01/09 00:36:32;;;;;;;15.80;10.00;;;;;;;8.63;43.75;100437.72;1784248;80;21373;-76
2021/01/09 00:39:00;;;;;;;16.17;10.60;;;;;;;8.61;43.74;100443.19;1784045;80;21184;-77
2021/01/09 00:41:31;;;;;;;15.05;9.93;;;;;;;8.63;43.73;100451.08;1783947;80;21163;-77
2021/01/09 00:43:59;;;;;;;16.48;10.65;;;;;;;8.61;43.69;100450.36;1783932;80;21653;-77
2021/01/09 00:46:27;;;;;;;16.32;10.20;;;;;;;8.58;43.70;100448.84;1784044;80;21135;-77
2021/01/09 00:48:55;;;;;;;17.00;10.80;;;;;;;8.56;43.73;100442.79;1784074;80;21763;-77
2021/01/09 00:51:23;;;;;;;16.40;10.82;;;;;;;8.54;43.78;100444.77;1784089;80;21231;-78
2021/01/09 00:53:50;;;;;;;16.95;11.00;;;;;;;8.54;43.81;100443.91;1783884;80;21160;-77
2021/01/09 00:56:18;;;;;;;16.10;10.50;;;;;;;8.53;43.80;100441.73;1783807;80;21161;-77
2021/01/09 00:58:47;;;;;;;15.50;10.63;;;;;;;8.53;43.74;100439.56;1784000;80;21116;-79
2021/01/09 01:01:15;;;;;;;15.88;10.60;;;;;;;8.52;43.78;100440.55;1783852;80;21357;-77
2021/01/09 01:03:43;;;;;;;15.00;9.88;;;;;;;8.50;43.73;100440.70;1792708;80;21144;-77
2021/01/09 01:06:11;;;;;;;17.50;11.22;;;;;;;8.51;43.73;100438.88;1783706;80;21176;-77
2021/01/09 01:08:39;;;;;;;17.10;10.95;;;;;;;8.49;43.73;100441.67;1783963;80;21175;-77
2021/01/09 01:11:09;;;;;;;15.80;10.48;;;;;;;8.49;43.78;100435.50;1783983;80;21159;-77
2021/01/09 01:13:36;;;;;;;16.02;10.58;;;;;;;8.47;43.70;100437.48;1784229;79;21265;-77
2021/01/09 01:16:05;;;;;;;16.20;10.45;;;;;;;8.44;43.70;100433.27;1783952;80;21167;-77
2021/01/09 01:18:33;;;;;;;15.40;10.10;;;;;;;8.45;43.72;100436.77;1784160;80;21140;-78
2021/01/09 01:21:02;;;;;;;16.07;10.35;;;;;;;8.45;43.68;100428.76;1783996;80;21168;-77
2021/01/09 01:23:31;;;;;;;17.23;10.93;;;;;;;8.43;43.67;100426.74;1784316;80;21120;-78
2021/01/09 01:25:58;;;;;;;15.55;10.25;;;;;;;8.43;43.71;100435.59;1783777;79;21359;-78
2021/01/09 01:28:26;;;;;;;16.12;10.23;;;;;;;8.45;43.59;100427.42;1783935;80;21069;-78
2021/01/09 01:30:53;;;;;;;17.95;11.00;;;;;;;8.42;43.55;100421.91;1783908;80;21128;-76
2021/01/09 01:33:21;;;;;;;16.20;10.13;;;;;;;8.42;43.56;100421.91;1783872;80;21182;-78
2021/01/09 01:35:48;;;;;;;15.03;9.38;;;;;;;8.38;43.57;100412.00;1784195;80;21457;-78
2021/01/09 01:38:18;;;;;;;14.60;9.95;;;;;;;8.40;43.63;100413.18;1784163;79;21379;-78
2021/01/09 01:40:45;;;;;;;16.80;10.63;;;;;;;8.39;43.64;100409.67;1783792;80;21164;-78
2021/01/09 01:43:13;;;;;;;15.45;10.38;;;;;;;8.41;43.60;100404.21;1783212;80;21179;-78
2021/01/09 01:45:43;;;;;;;15.00;9.50;;;;;;;8.43;43.58;100405.39;1784242;80;21179;-78
2021/01/09 01:48:11;;;;;;;14.28;9.05;;;;;;;8.43;43.55;100399.55;1783984;80;21611;-78
2021/01/09 01:50:39;;;;;;;15.72;9.75;;;;;;;8.44;43.51;100396.39;1784182;80;21410;-78
2021/01/09 01:53:07;;;;;;;14.53;10.68;;;;;;;8.43;43.48;100396.88;1755566;80;21183;-77
2021/01/09 01:55:35;;;;;;;14.87;10.20;;;;;;;8.42;43.50;100401.88;1783990;80;21180;-78
2021/01/09 01:58:03;;;;;;;16.02;10.88;;;;;;;8.41;43.53;100402.87;1755636;80;21183;-80
2021/01/09 02:00:31;;;;;;;15.80;10.40;;;;;;;8.43;43.54;100410.73;1784030;80;21168;-77
2021/01/09 02:03:00;;;;;;;16.17;11.12;;;;;;;8.42;43.56;100402.38;1783982;80;21902;-78
2021/01/09 02:05:40;;;;;;;16.93;11.00;;;;;;;8.40;43.58;100394.50;1784054;80;21167;-77
2021/01/09 02:08:11;;;;;;;15.05;10.80;;;;;;;8.41;43.59;100400.70;1783148;80;21041;-78
2021/01/09 02:10:41;;;;;;;16.15;11.10;;;;;;;8.42;43.64;100405.05;1784167;80;21140;-77
2021/01/09 02:13:17;;;;;;;16.65;11.08;;;;;;;8.42;43.61;100403.22;1784096;80;21583;-77
2021/01/09 02:15:50;;;;;;;17.27;10.90;;;;;;;8.43;43.64;100406.23;1784559;80;21160;-78
2021/01/09 02:18:20;;;;;;;18.27;11.28;;;;;;;8.43;43.65;100406.23;1783916;80;21148;-81
2021/01/09 02:20:49;;;;;;;20.23;12.18;;;;;;;8.41;43.67;100402.87;1756108;80;21527;-77
2021/01/09 02:23:21;;;;;;;15.60;11.30;;;;;;;8.39;43.77;100402.16;1784007;80;21191;-79
2021/01/09 02:25:50;;;;;;;17.57;11.57;;;;;;;8.41;43.86;100402.05;1756808;80;21160;-79
2021/01/09 02:28:18;;;;;;;18.45;11.68;;;;;;;8.41;43.87;100408.72;1784143;79;21847;-80
2021/01/09 02:30:48;;;;;;;16.90;11.22;;;;;;;8.39;43.90;100403.00;1784120;80;21081;-77
2021/01/09 02:33:16;;;;;;;18.80;12.03;;;;;;;8.40;43.93;100418.52;1784060;80;21139;-77
2021/01/09 02:35:44;;;;;;;19.48;12.43;;;;;;;8.39;44.02;100419.52;1784297;80;21040;-77
2021/01/09 02:38:11;;;;;;;18.65;12.45;;;;;;;8.40;44.07;100425.19;1783851;80;21679;-78
2021/01/09 02:40:41;;;;;;;19.77;12.47;;;;;;;8.41;44.01;100416.22;1783770;80;22238;-78
2021/01/09 02:43:12;;;;;;;20.90;12.30;;;;;;;8.42;44.02;100407.72;1784133;80;21198;-78
2021/01/09 02:45:40;;;;;;;23.62;13.25;;;;;;;8.42;44.02;100405.05;1784163;80;21662;-78
2021/01/09 02:48:08;;;;;;;20.15;13.03;;;;;;;8.41;44.04;100407.38;1783983;80;21480;-79
2021/01/09 02:50:36;;;;;;;18.37;12.50;;;;;;;8.42;44.12;100413.89;1784034;80;21191;-79
2021/01/09 02:53:04;;;;;;;17.73;12.70;;;;;;;8.41;44.19;100403.37;1784291;80;22745;-79
2021/01/09 02:55:31;;;;;;;18.23;12.20;;;;;;;8.38;44.21;100403.16;1784257;80;22113;-78
2021/01/09 02:57:59;;;;;;;20.92;13.32;;;;;;;8.38;44.19;100393.32;1783906;80;21427;-79
2021/01/09 03:00:26;;;;;;;19.70;13.13;;;;;;;8.39;44.22;100389.66;1783613;79;21151;-78
2021/01/09 03:02:54;;;;;;;16.27;11.57;;;;;;;8.42;44.29;100391.70;1784063;80;21085;-79
2021/01/09 03:05:22;;;;;;;22.27;12.88;;;;;;;8.43;44.19;100390.70;1782663;80;21681;-79
2021/01/09 03:07:49;;;;;;;18.62;12.35;;;;;;;8.43;44.17;100396.88;1782902;80;21186;-77
2021/01/09 03:10:17;;;;;;;18.35;12.53;;;;;;;8.43;44.21;100391.55;1782327;80;21143;-77
2021/01/09 03:12:45;;;;;;;19.17;12.43;;;;;;;8.42;44.22;100395.21;1782800;80;21183;-78
2021/01/09 03:15:13;;;;;;;19.35;12.63;;;;;;;8.43;44.34;100398.72;1784121;80;21156;-79
2021/01/09 03:17:40;;;;;;;18.73;12.07;;;;;;;8.42;44.37;100400.55;1784166;80;21373;-79
2021/01/09 03:20:09;;;;;;;20.32;13.08;;;;;;;8.41;44.41;100402.87;1783767;80;21511;-79
2021/01/09 03:22:37;;;;;;;20.30;13.03;;;;;;;8.41;44.50;100409.55;1784329;80;21108;-79
2021/01/09 03:25:06;;;;;;;18.82;12.85;;;;;;;8.42;44.49;100402.38;1784328;80;21663;-78
2021/01/09 03:27:34;;;;;;;19.25;13.08;;;;;;;8.40;44.53;100407.84;1784281;80;21184;-78
2021/01/09 03:30:04;;;;;;;21.15;13.45;;;;;;;8.39;44.56;100403.00;1783681;80;21190;-78
2021/01/09 03:32:31;;;;;;;22.87;14.30;;;;;;;8.39;44.63;100403.00;1783490;80;21195;-78
2021/01/09 03:34:59;;;;;;;19.70;13.55;;;;;;;8.40;44.62;100402.50;1783759;80;21592;-78
2021/01/09 03:37:27;;;;;;;23.80;14.53;;;;;;;8.41;44.59;100403.37;1784098;80;21477;-78
2021/01/09 03:39:55;;;;;;;21.87;13.70;;;;;;;8.40;44.63;100405.17;1784114;80;21360;-81
2021/01/09 03:42:23;;;;;;;22.62;14.53;;;;;;;8.41;44.72;100408.72;1783705;80;21696;-79
2021/01/09 03:44:50;;;;;;;22.55;14.80;;;;;;;8.41;44.82;100414.05;1783761;80;21144;-79
2021/01/09 03:47:18;;;;;;;23.52;15.18;;;;;;;8.40;44.86;100413.18;1783263;80;21172;-78
2021/01/09 03:49:46;;;;;;;22.55;15.03;;;;;;;8.39;44.90;100411.50;1783486;80;21072;-78
2021/01/09 03:52:13;;;;;;;20.05;13.95;;;;;;;8.41;44.89;100417.56;1783424;80;21207;-78
2021/01/09 03:54:42;;;;;;;21.45;12.90;;;;;;;8.42;44.82;100409.89;1783974;80;21449;-78
2021/01/09 03:57:10;;;;;;;21.52;13.90;;;;;;;8.43;44.83;100415.57;1783528;80;21393;-78
2021/01/09 03:59:37;;;;;;;17.50;13.05;;;;;;;8.43;44.81;100416.06;1783819;80;21041;-78
2021/01/09 04:02:05;;;;;;;17.92;12.18;;;;;;;8.42;44.74;100411.23;1784216;80;21187;-78
2021/01/09 04:04:33;;;;;;;20.00;12.98;;;;;;;8.42;44.73;100409.89;1784116;80;21151;-78
2021/01/09 04:07:01;;;;;;;19.98;13.20;;;;;;;8.41;44.74;100410.89;1783889;80;21365;-79
2021/01/09 04:09:28;;;;;;;18.02;12.50;;;;;;;8.40;44.80;100417.19;1784067;80;21433;-78
2021/01/09 04:11:56;;;;;;;20.92;13.22;;;;;;;8.40;44.82;100417.19;1783860;80;21191;-77
2021/01/09 04:14:24;;;;;;;19.57;13.18;;;;;;;8.39;44.82;100412.34;1783948;80;21123;-77
2021/01/09 04:16:52;;;;;;;18.87;13.15;;;;;;;8.38;44.77;100411.16;1783994;80;21167;-78
2021/01/09 04:19:19;;;;;;;21.40;14.28;;;;;;;8.36;44.80;100412.66;1783831;80;22181;-78
2021/01/09 04:21:54;;;;;;;20.12;14.50;;;;;;;8.36;44.81;100420.66;1783337;80;21203;-78
2021/01/09 04:24:23;;;;;;;21.85;14.63;;;;;;;8.36;44.94;100426.47;1783445;80;21159;-78
2021/01/09 04:26:56;;;;;;;24.35;15.58;;;;;;;8.35;44.95;100420.25;1783650;80;21152;-77
2021/01/09 04:29:25;;;;;;;24.63;15.35;;;;;;;8.34;44.97;100417.25;1783794;80;21156;-77
2021/01/09 04:31:53;;;;;;;24.72;16.10;;;;;;;8.35;45.02;100426.09;1783696;80;21412;-79
2021/01/09 04:34:22;;;;;;;25.23;15.28;;;;;;;8.35;45.02;100426.09;1783502;80;21171;-79
2021/01/09 04:36:50;;;;;;;25.55;16.32;;;;;;;8.34;45.00;100422.58;1784021;80;21164;-78
2021/01/09 04:39:18;;;;;;;24.23;15.45;;;;;;;8.32;45.02;100421.06;1783619;80;21191;-78
2021/01/09 04:41:46;;;;;;;27.35;15.88;;;;;;;8.30;45.11;100422.52;1783680;80;21164;-81
2021/01/09 04:44:15;;;;;;;23.38;14.73;;;;;;;8.31;45.17;100434.03;1757440;79;21376;-78
2021/01/09 04:46:52;;;;;;;21.45;14.23;;;;;;;8.30;45.19;100433.20;1783538;80;21187;-78
2021/01/09 04:49:27;;;;;;;24.47;14.63;;;;;;;8.30;45.17;100436.36;1783200;80;21208;-78
2021/01/09 04:51:56;;;;;;;25.23;16.17;;;;;;;8.31;45.20;100432.70;1783864;80;21421;-79
2021/01/09 04:54:25;;;;;;;27.25;17.10;;;;;;;8.31;45.20;100438.03;1783922;80;21528;-77
2021/01/09 04:56:54;;;;;;;30.27;17.57;;;;;;;8.31;45.16;100432.70;1783942;80;22700;-78
2021/01/09 04:59:23;;;;;;;27.82;17.75;;;;;;;8.30;45.22;100429.69;1783676;80;21222;-78
2021/01/09 05:01:51;;;;;;;29.25;17.07;;;;;;;8.28;45.27;100437.84;1784030;80;21160;-78
2021/01/09 05:04:20;;;;;;;27.82;17.82;;;;;;;8.27;45.23;100436.67;1783855;80;21183;-79
2021/01/09 05:06:48;;;;;;;24.35;16.55;;;;;;;8.25;45.27;100434.13;1784365;80;21076;-79
2021/01/09 05:09:16;;;;;;;27.42;16.42;;;;;;;8.25;45.26;100436.80;1783907;80;21805;-78
2021/01/09 05:11:45;;;;;;;29.55;17.40;;;;;;;8.24;45.29;100435.61;1783897;80;21108;-78
2021/01/09 05:14:13;;;;;;;25.62;16.02;;;;;;;8.23;45.32;100438.78;1783933;80;21159;-77
2021/01/09 05:16:42;;;;;;;30.27;17.73;;;;;;;8.24;45.41;100443.62;1784225;80;21200;-79
2021/01/09 05:19:10;;;;;;;32.00;19.25;;;;;;;8.23;45.38;100440.61;1783048;80;21284;-78
2021/01/09 05:21:38;;;;;;;31.80;19.20;;;;;;;8.26;45.46;100445.63;1783675;80;21161;-79
2021/01/09 05:24:08;;;;;;;31.40;19.62;;;;;;;8.27;45.46;100446.01;1783458;80;21148;-77
2021/01/09 05:26:38;;;;;;;31.87;19.67;;;;;;;8.28;45.43;100442.34;1783963;79;21667;-78
2021/01/09 05:29:06;;;;;;;29.57;19.77;;;;;;;8.29;45.38;100454.70;1776173;77;21148;-78
2021/01/09 05:31:39;;;;;;;32.45;19.52;;;;;;;8.27;45.47;100442.00;1812133;79;21262;-78
2021/01/09 05:34:05;;;;;;;28.20;18.55;;;;;;;8.27;45.55;100447.34;1815773;79;21814;-77
2021/01/09 05:36:35;;;;;;;29.10;18.80;;;;;;;8.26;45.61;100442.47;1816153;79;21667;-79
2021/01/09 05:39:04;;;;;;;27.95;17.17;;;;;;;8.26;45.62;100446.97;1816140;79;21045;-77
2021/01/09 05:41:32;;;;;;;28.05;18.30;;;;;;;8.27;45.66;100452.19;1816349;79;21327;-77
2021/01/09 05:44:05;;;;;;;27.13;17.65;;;;;;;8.29;45.67;100450.20;1787162;79;21265;-76
2021/01/09 05:46:40;;;;;;;27.02;17.73;;;;;;;8.30;45.75;100455.04;1816450;79;21638;-79
2021/01/09 05:49:09;;;;;;;26.45;17.35;;;;;;;8.29;45.76;100450.70;1815965;79;21177;-78
2021/01/09 05:51:38;;;;;;;26.30;17.35;;;;;;;8.30;45.81;100449.70;1816521;77;21148;-79
2021/01/09 05:54:08;;;;;;;29.42;17.85;;;;;;;8.30;45.85;100453.70;1783696;80;21518;-78
2021/01/09 05:56:41;;;;;;;28.60;18.67;;;;;;;8.31;45.84;100455.38;1796124;79;21160;-78
2021/01/09 05:59:10;;;;;;;29.42;18.35;;;;;;;8.32;45.80;100464.60;1815815;78;21372;-77
2021/01/09 06:01:38;;;;;;;28.02;17.85;;;;;;;8.32;45.81;100453.09;1816203;79;21172;-77
2021/01/09 06:04:16;;;;;;;27.62;17.82;;;;;;;8.33;45.85;100459.60;1761400;79;21163;-78
2021/01/09 06:06:59;;;;;;;27.67;17.40;;;;;;;8.33;45.89;100466.77;1816129;79;21163;-78
2021/01/09 06:09:34;;;;;;;27.17;16.35;;;;;;;8.32;45.92;100469.94;1814418;79;21203;-77
2021/01/09 06:12:06;;;;;;;24.90;15.98;;;;;;;8.31;45.98;100465.59;1798622;77;21183;-78
2021/01/09 06:14:35;;;;;;;23.77;15.35;;;;;;;8.33;45.95;100466.28;1804242;79;21183;-78
2021/01/09 06:17:05;;;;;;;26.42;17.05;;;;;;;8.33;46.00;100468.95;1784392;80;21199;-78
2021/01/09 06:19:34;;;;;;;24.85;16.50;;;;;;;8.33;46.05;100474.28;1775230;79;21179;-77
2021/01/09 06:22:02;;;;;;;23.98;16.35;;;;;;;8.34;46.05;100471.12;1759980;79;21403;-78
2021/01/09 06:24:30;;;;;;;27.70;18.42;;;;;;;8.34;46.08;100471.12;1782066;80;21640;-79
2021/01/09 06:27:00;;;;;;;23.92;16.25;;;;;;;8.34;46.07;100469.78;1783170;80;21045;-79
2021/01/09 06:29:30;;;;;;;27.55;16.90;;;;;;;8.34;46.04;100468.45;1783131;80;21171;-79
2021/01/09 06:32:04;;;;;;;22.75;15.72;;;;;;;8.35;46.06;100471.46;1806824;77;21172;-79
2021/01/09 06:34:33;;;;;;;28.05;17.12;;;;;;;8.35;46.06;100477.64;1809966;78;21619;-77
2021/01/09 06:37:03;;;;;;;31.02;16.27;;;;;;;8.33;46.14;100470.77;1794922;79;21650;-79
2021/01/09 06:39:36;;;;;;;28.15;17.85;;;;;;;8.35;46.23;100474.13;1799981;78;21567;-78
2021/01/09 06:42:07;;;;;;;25.77;16.87;;;;;;;8.36;46.22;100479.84;1786263;79;21484;-79
2021/01/09 06:44:34;;;;;;;27.27;16.82;;;;;;;8.38;46.29;100492.57;1784305;79;21112;-79
2021/01/09 06:47:02;;;;;;;24.67;16.65;;;;;;;8.38;46.28;100496.08;1784033;79;22246;-79
2021/01/09 06:49:30;;;;;;;29.07;17.00;;;;;;;8.38;46.37;100496.58;1782908;80;21380;-79
2021/01/09 06:52:02;;;;;;;25.20;16.10;;;;;;;8.39;46.33;100492.41;1783280;80;21216;-79
2021/01/09 06:54:46;;;;;;;27.55;17.32;;;;;;;8.39;46.33;100496.91;1783757;79;21194;-79
2021/01/09 06:57:16;;;;;;;26.90;17.02;;;;;;;8.39;46.36;100492.41;1784067;79;21746;-78
2021/01/09 06:59:49;;;;;;;26.97;17.23;;;;;;;8.39;46.40;100489.74;1784197;79;21186;-77
2021/01/09 07:02:27;;;;;;;30.17;18.30;;;;;;;8.40;46.42;100499.92;1784107;80;21396;-77
2021/01/09 07:05:01;;;;;;;27.20;17.85;;;;;;;8.39;46.42;100501.76;1783962;80;21001;-78
2021/01/09 07:07:35;;;;;;;28.07;17.70;;;;;;;8.40;46.46;100502.59;1783584;79;21152;-78
2021/01/09 07:10:22;;;;;;;30.02;18.52;;;;;;;8.41;46.49;100504.30;1783640;80;21531;-78
2021/01/09 07:12:59;;;;;;;30.92;19.25;;;;;;;8.42;46.52;100511.32;1782861;80;21216;-78
2021/01/09 07:15:27;;;;;;;27.95;18.55;;;;;;;8.41;46.57;100513.64;1784521;79;22683;-78
2021/01/09 07:17:58;;;;;;;29.32;17.92;;;;;;;8.42;46.56;100514.48;1784200;80;21120;-78
2021/01/09 07:20:29;;;;;;;29.80;17.48;;;;;;;8.41;46.56;100512.81;1784270;79;21131;-78
2021/01/09 07:23:01;;;;;;;33.53;19.32;;;;;;;8.42;46.61;100523.33;1791708;79;21499;-79
2021/01/09 07:25:38;;;;;;;31.17;20.27;;;;;;;8.44;46.64;100525.84;1786858;79;21168;-80
2021/01/09 07:28:18;;;;;;;32.70;19.82;;;;;;;8.45;46.67;100531.06;1803479;79;21221;-78
2021/01/09 07:30:46;;;;;;;31.20;19.92;;;;;;;8.47;46.65;100527.75;1738201;80;21220;-78
2021/01/09 07:33:14;;;;;;;30.85;18.62;;;;;;;8.49;46.59;100522.25;1810186;79;21196;-77
2021/01/09 07:35:44;;;;;;;29.63;18.55;;;;;;;8.50;46.63;100523.95;1796977;78;21097;-79
2021/01/09 07:38:14;;;;;;;30.25;18.65;;;;;;;8.51;46.65;100525.14;1796047;79;21115;-78
2021/01/09 07:41:02;;;;;;;31.17;19.57;;;;;;;8.53;46.68;100528.50;1798221;79;21413;-78
2021/01/09 07:43:39;;;;;;;33.15;20.30;;;;;;;8.55;46.69;100531.05;1792827;79;21143;-78
2021/01/09 07:46:27;;;;;;;32.60;20.65;;;;;;;8.54;46.61;100529.33;1783926;80;21088;-78
2021/01/09 07:48:57;;;;;;;34.65;20.52;;;;;;;8.55;46.62;100533.71;1783923;80;21104;-78
2021/01/09 07:51:48;;;;;;;29.32;18.73;;;;;;;8.54;46.71;100535.55;1793702;79;21074;-77
2021/01/09 07:54:43;;;;;;;29.80;19.23;;;;;;;8.54;46.71;100536.88;1788667;79;21366;-77
2021/01/09 07:57:22;;;;;;;30.35;20.15;;;;;;;8.53;46.72;100544.52;1783850;80;21132;-79
2021/01/09 08:00:03;;;;;;;30.25;19.75;;;;;;;8.52;46.81;100541.50;1805888;79;21099;-78
2021/01/09 08:02:38;;;;;;;31.50;19.12;;;;;;;8.53;46.83;100536.50;1801374;77;21124;-78
2021/01/09 08:05:23;;;;;;;32.58;20.50;;;;;;;8.58;46.77;100544.95;1803083;77;21084;-77
2021/01/09 08:07:51;;;;;;;31.35;20.23;;;;;;;8.62;46.65;100545.48;1781937;80;21380;-78
2021/01/09 08:10:23;;;;;;;30.37;19.65;;;;;;;8.63;46.71;100545.36;1782923;80;21105;-78
2021/01/09 08:13:04;;;;;;;33.45;20.57;;;;;;;8.67;46.72;100550.39;1783302;80;21444;-78
2021/01/09 08:15:33;;;;;;;32.38;19.82;;;;;;;8.68;46.73;100550.77;1783150;80;21097;-78
2021/01/09 08:18:04;;;;;;;34.35;20.45;;;;;;;8.70;46.68;100559.47;1782943;80;21100;-79
2021/01/09 08:20:32;;;;;;;33.45;20.17;;;;;;;8.71;46.62;100554.47;1801439;77;21412;-78
2021/01/09 08:23:02;;;;;;;32.75;21.02;;;;;;;8.71;46.67;100554.47;1815118;77;21201;-78
2021/01/09 08:25:34;;;;;;;35.38;21.65;;;;;;;8.72;46.66;100551.67;1816234;79;21119;-78
2021/01/09 08:28:03;;;;;;;34.03;20.60;;;;;;;8.73;46.67;100552.52;1813374;79;21583;-78
2021/01/09 08:30:33;;;;;;;33.58;20.50;;;;;;;8.74;46.68;100546.17;1815754;79;21097;-78
2021/01/09 08:33:10;;;;;;;29.63;19.62;;;;;;;8.75;46.72;100543.84;1815710;79;21473;-78
2021/01/09 08:35:50;;;;;;;34.48;22.15;;;;;;;8.78;46.68;100547.58;1813530;77;21115;-78
2021/01/09 08:38:18;;;;;;;32.50;20.55;;;;;;;8.79;46.73;100543.91;1783737;80;21594;-78
2021/01/09 08:40:45;;;;;;;32.30;20.52;;;;;;;8.80;46.71;100545.59;1783956;80;21570;-77
2021/01/09 08:43:14;;;;;;;31.37;19.77;;;;;;;8.83;46.69;100543.48;1783240;80;21497;-78
2021/01/09 08:45:53;;;;;;;35.58;21.73;;;;;;;8.86;46.69;100537.02;1782325;80;22618;-78
2021/01/09 08:48:36;;;;;;;32.33;20.32;;;;;;;8.87;46.66;100530.69;1792009;78;21624;-78
2021/01/09 08:51:12;;;;;;;31.57;19.90;;;;;;;8.88;46.69;100527.02;1805767;77;21108;-78
2021/01/09 08:54:07;;;;;;;30.70;19.60;;;;;;;8.90;46.60;100527.70;1787328;79;21116;-78
2021/01/09 08:56:34;;;;;;;34.00;20.95;;;;;;;8.94;46.51;100528.26;1798609;79;21092;-78
2021/01/09 08:59:10;;;;;;;35.60;21.25;;;;;;;8.94;46.52;100527.76;1789122;79;21527;-78
2021/01/09 09:01:49;;;;;;;30.60;19.67;;;;;;;8.95;46.47;100517.45;1815414;79;21121;-77
2021/01/09 09:04:18;;;;;;;33.38;20.60;;;;;;;8.97;46.40;100516.79;1815126;78;21100;-80
2021/01/09 09:06:47;;;;;;;36.73;20.85;;;;;;;8.97;46.48;100515.45;1815416;79;21084;-78
2021/01/09 09:09:16;;;;;;;34.08;21.10;;;;;;;9.00;46.49;100515.17;1803501;78;21820;-80
2021/01/09 09:11:53;;;;;;;32.50;20.57;;;;;;;9.02;46.41;100511.84;1802304;79;21375;-77
2021/01/09 09:14:21;;;;;;;33.20;20.25;;;;;;;9.07;46.37;100510.91;1815171;79;21112;-78
2021/01/09 09:17:07;;;;;;;33.88;21.20;;;;;;;9.10;46.38;100518.64;1815458;79;21541;-78
2021/01/09 09:19:37;;;;;;;32.08;20.12;;;;;;;9.12;46.33;100512.64;1815527;78;21116;-79
2021/01/09 09:22:06;;;;;;;36.35;21.40;;;;;;;9.14;46.18;100508.50;1815720;79;21088;-78
2021/01/09 09:24:45;;;;;;;33.33;20.88;;;;;;;9.15;46.16;100513.69;1815891;79;39286;-78
2021/01/09 09:27:29;;;;;;;33.83;20.30;;;;;;;9.17;46.09;100513.53;1815766;79;21199;-78
2021/01/09 09:30:14;;;;;;;28.85;19.30;;;;;;;9.21;45.97;100512.75;1806749;79;21439;-79
2021/01/09 09:32:43;;;;;;;31.35;20.85;;;;;;;9.23;45.97;100506.78;1783316;80;21744;-79
2021/01/09 09:35:28;;;;;;;34.08;20.72;;;;;;;9.24;45.95;100503.11;1783448;80;21081;-77
2021/01/09 09:38:02;;;;;;;32.65;19.98;;;;;;;9.28;45.96;100505.83;1782732;80;21668;-77
2021/01/09 09:40:32;;;;;;;31.42;19.60;;;;;;;9.31;45.93;100509.53;1801997;77;21117;-77
2021/01/09 09:43:16;;;;;;;30.50;19.10;;;;;;;9.31;45.84;100498.37;1815429;78;21116;-78
2021/01/09 09:45:57;;;;;;;28.47;18.77;;;;;;;9.32;45.66;100506.72;1815233;79;21112;-78
2021/01/09 09:48:35;;;;;;;32.78;20.48;;;;;;;9.34;45.54;100502.55;1799584;77;21084;-77
2021/01/09 09:51:08;;;;;;;32.83;19.77;;;;;;;9.34;45.52;100505.23;1776524;80;21365;-78
2021/01/09 09:53:37;;;;;;;32.60;20.45;;;;;;;9.36;45.60;100501.92;1775585;80;21116;-77
2021/01/09 09:56:20;;;;;;;30.70;19.57;;;;;;;9.37;45.49;100503.61;1776026;80;21440;-79
2021/01/09 09:59:00;;;;;;;32.05;19.80;;;;;;;9.35;45.56;100500.22;1776195;80;21560;-79
2021/01/09 10:01:29;;;;;;;34.23;20.95;;;;;;;9.37;45.59;100503.11;1776957;80;21122;-79
2021/01/09 10:04:00;;;;;;;31.68;20.25;;;;;;;9.39;45.56;100492.25;1828243;77;21364;-78
2021/01/09 10:06:38;;;;;;;31.17;19.50;;;;;;;9.41;45.58;100499.64;1805163;77;21393;-80
2021/01/09 10:09:15;;;;;;;28.10;18.37;;;;;;;9.41;45.51;100490.29;1797547;77;21105;-77
2021/01/09 10:11:42;;;;;;;28.83;19.20;;;;;;;9.44;45.46;100495.81;1808016;78;21156;-78
2021/01/09 10:14:12;;;;;;;30.52;19.00;;;;;;;9.44;45.41;100491.30;1778089;80;21645;-78
2021/01/09 10:16:40;;;;;;;34.65;21.87;;;;;;;9.46;45.32;100486.66;1785146;79;21212;-78
2021/01/09 10:19:11;;;;;;;31.12;19.57;;;;;;;9.49;45.27;100493.02;1812957;79;20997;-78
2021/01/09 10:21:39;;;;;;;34.48;20.62;;;;;;;9.49;45.34;100490.85;1786861;78;21535;-78
2021/01/09 10:24:07;;;;;;;29.57;18.90;;;;;;;9.51;45.33;100487.55;1808494;77;21164;-79
2021/01/09 10:26:35;;;;;;;29.63;19.50;;;;;;;9.51;45.33;100487.55;1804485;77;21153;-79
2021/01/09 10:29:03;;;;;;;33.90;19.80;;;;;;;9.51;45.20;100487.05;1794698;79;21484;-79
2021/01/09 10:31:36;;;;;;;34.30;19.62;;;;;;;9.51;45.07;100487.05;1786581;79;21139;-78
2021/01/09 10:34:06;;;;;;;31.75;19.05;;;;;;;9.49;45.03;100489.02;1788588;79;21100;-78
2021/01/09 10:36:36;;;;;;;30.30;19.48;;;;;;;9.47;44.99;100487.00;1814337;79;21448;-78
2021/01/09 10:39:04;;;;;;;28.80;19.52;;;;;;;9.45;44.86;100479.64;1815788;79;21104;-77
2021/01/09 10:41:32;;;;;;;29.95;19.80;;;;;;;9.41;44.84;100484.94;1815725;79;22630;-77
2021/01/09 10:44:02;;;;;;;33.88;20.82;;;;;;;9.39;45.08;100486.41;1789528;79;21151;-77
2021/01/09 10:46:30;;;;;;;33.95;20.20;;;;;;;9.40;45.12;100483.23;1787747;79;21112;-78
2021/01/09 10:48:59;;;;;;;31.30;20.02;;;;;;;9.40;45.33;100481.90;1788008;79;21211;-79
2021/01/09 10:51:29;;;;;;;34.13;20.35;;;;;;;9.42;45.41;100477.26;1800548;77;22127;-80
2021/01/09 10:53:56;;;;;;;32.15;20.77;;;;;;;9.46;45.38;100477.80;1813063;77;22243;-78
2021/01/09 10:56:24;;;;;;;32.60;23.07;;;;;;;9.47;45.33;100473.63;1798635;77;21067;-78
2021/01/09 10:58:51;;;;;;;30.50;20.57;;;;;;;9.49;45.36;100473.47;1784721;79;21195;-78
2021/01/09 11:01:23;;;;;;;32.50;19.85;;;;;;;9.50;45.34;100472.00;1783186;79;21062;-79
2021/01/09 11:03:51;;;;;;;37.08;21.10;;;;;;;9.53;45.32;100469.01;1794966;77;21636;-78
2021/01/09 11:06:22;;;;;;;28.65;18.37;;;;;;;9.55;45.21;100475.06;1814759;77;21356;-78
2021/01/09 11:08:50;;;;;;;31.40;19.92;;;;;;;9.56;45.10;100470.55;1803165;77;21327;-78
2021/01/09 11:11:19;;;;;;;28.32;19.40;;;;;;;9.55;45.12;100472.89;1780698;80;21172;-79
2021/01/09 11:13:50;;;;;;;28.87;18.30;;;;;;;9.56;45.11;100482.09;1796074;79;21089;-80
2021/01/09 11:16:25;;;;;;;27.37;18.07;;;;;;;9.60;45.02;100479.95;1790708;78;21169;-78
2021/01/09 11:18:53;;;;;;;30.15;19.98;;;;;;;9.61;45.00;100479.80;1782155;80;21361;-78
2021/01/09 11:21:21;;;;;;;31.12;19.82;;;;;;;9.62;44.99;100478.80;1786115;77;21187;-78
2021/01/09 11:23:49;;;;;;;33.70;20.75;;;;;;;9.62;44.93;100485.98;1781731;80;21156;-78
2021/01/09 11:26:24;;;;;;;32.73;20.60;;;;;;;9.60;45.00;100484.81;1782627;80;21176;-79
2021/01/09 11:28:52;;;;;;;33.90;20.05;;;;;;;9.60;45.05;100488.82;1784421;80;21088;-78
2021/01/09 11:31:22;;;;;;;33.55;20.97;;;;;;;9.61;44.92;100491.83;1783770;80;21368;-78
2021/01/09 11:33:50;;;;;;;31.60;19.82;;;;;;;9.60;44.90;100494.16;1783173;80;21578;-78